Time;durP1;ratioP1;P1;durP2;ratioP2;P2;SDS_P1;SDS_P2;PMS_P1;PMS_P2;Temp;Humidity;BMP_temperature;BMP_pressure;BME280_temperature;BME280_humidity;BME280_pressure;Samples;Min_cycle;Max_cycle;Signal;HPM_P1;HPM_P2
2024/01/05 00:01:21;;;;;;;9.48;2.50;;;8.90;99.90;;;;;;5094736;28;20098;-63
2024/01/05 00:03:47;;;;;;;11.95;2.78;;;8.90;99.90;;;;;;5094903;28;20059;-63
2024/01/05 00:06:13;;;;;;;6.55;2.28;;;8.90;99.90;;;;;;5094783;28;20105;-62
2024/01/05 00:08:38;;;;;;;12.88;2.63;;;8.90;99.90;;;;;;5094834;28;20096;-62
2024/01/05 00:11:04;;;;;;;6.22;2.15;;;8.90;99.90;;;;;;5094668;28;20035;-61
2024/01/05 00:13:29;;;;;;;8.93;1.95;;;8.90;99.90;;;;;;5094693;28;20052;-63
2024/01/05 00:15:55;;;;;;;10.32;2.60;;;8.90;99.90;;;;;;5094646;28;20027;-61
2024/01/05 00:18:20;;;;;;;7.40;2.65;;;8.90;99.90;;;;;;5094644;28;20475;-61
2024/01/05 00:20:46;;;;;;;6.80;2.58;;;9.00;99.90;;;;;;5094462;28;20040;-63
2024/01/05 00:23:12;;;;;;;6.60;2.08;;;9.00;99.90;;;;;;5093732;28;20036;-61
2024/01/05 00:25:37;;;;;;;12.32;3.00;;;9.00;99.90;;;;;;5094594;28;20090;-62
2024/01/05 00:28:03;;;;;;;9.20;2.33;;;9.00;99.90;;;;;;5094511;28;20048;-62
2024/01/05 00:30:29;;;;;;;7.45;2.75;;;9.00;99.90;;;;;;5094382;28;20035;-61
2024/01/05 00:32:55;;;;;;;9.18;2.10;;;9.10;99.90;;;;;;5093872;28;20036;-62
2024/01/05 00:35:20;;;;;;;8.02;2.15;;;9.00;99.90;;;;;;5094123;28;20029;-63
2024/01/05 00:37:46;;;;;;;9.05;2.13;;;9.00;99.90;;;;;;5094014;28;20044;-62
2024/01/05 00:40:12;;;;;;;12.77;2.53;;;9.00;99.90;;;;;;5094005;28;20025;-62
2024/01/05 00:42:37;;;;;;;6.28;2.13;;;9.10;99.90;;;;;;5094035;28;20029;-62
2024/01/05 00:45:04;;;;;;;8.43;1.70;;;9.00;99.90;;;;;;5094025;28;20032;-62
2024/01/05 00:47:30;;;;;;;8.10;2.33;;;9.00;99.90;;;;;;5093970;28;20413;-61
2024/01/05 00:49:55;;;;;;;6.82;2.17;;;9.10;99.90;;;;;;5093914;28;20043;-61
2024/01/05 00:52:21;;;;;;;11.57;2.60;;;9.10;99.90;;;;;;5093851;28;20813;-63
2024/01/05 00:54:48;;;;;;;7.10;2.20;;;9.10;99.90;;;;;;5093959;28;20036;-63
2024/01/05 00:57:13;;;;;;;8.40;2.03;;;9.10;99.90;;;;;;5093854;28;20032;-61
2024/01/05 00:59:39;;;;;;;8.15;2.20;;;9.10;99.90;;;;;;5093834;28;20025;-61
2024/01/05 01:02:05;;;;;;;5.68;1.73;;;9.10;99.90;;;;;;5093590;28;20029;-62
2024/01/05 01:04:30;;;;;;;9.82;2.15;;;9.20;99.90;;;;;;5093639;28;20095;-61
2024/01/05 01:06:56;;;;;;;4.10;2.20;;;9.20;99.90;;;;;;5093499;28;20123;-64
2024/01/05 01:09:21;;;;;;;9.43;2.25;;;9.30;99.90;;;;;;5093873;28;20025;-62
2024/01/05 01:11:50;;;;;;;7.28;2.40;;;9.30;99.90;;;;;;5093563;28;20064;-61
2024/01/05 01:14:15;;;;;;;11.07;2.67;;;9.30;99.90;;;;;;5093535;28;20046;-62
2024/01/05 01:16:41;;;;;;;5.90;1.95;;;9.30;99.90;;;;;;5093438;28;20454;-62
2024/01/05 01:19:07;;;;;;;6.20;2.30;;;9.40;99.90;;;;;;5093494;28;20055;-63
2024/01/05 01:21:32;;;;;;;7.28;2.50;;;9.40;99.90;;;;;;5093256;28;20040;-62
2024/01/05 01:23:58;;;;;;;6.40;1.90;;;9.40;99.90;;;;;;5093388;28;20032;-62
2024/01/05 01:26:23;;;;;;;8.55;1.95;;;9.50;99.90;;;;;;5093161;28;20033;-64
2024/01/05 01:28:50;;;;;;;11.93;2.45;;;9.50;99.90;;;;;;5093234;28;20063;-62
2024/01/05 01:31:15;;;;;;;10.48;2.15;;;9.60;99.90;;;;;;5092870;28;20055;-62
2024/01/05 01:33:41;;;;;;;9.93;1.58;;;9.60;99.90;;;;;;5093124;28;20032;-62
2024/01/05 01:36:07;;;;;;;7.30;2.13;;;9.60;99.90;;;;;;5092835;28;20080;-63
2024/01/05 01:38:32;;;;;;;8.88;2.40;;;9.60;99.90;;;;;;5092989;28;20025;-62
2024/01/05 01:40:58;;;;;;;6.93;1.63;;;9.60;99.90;;;;;;5093017;28;20073;-61
2024/01/05 01:43:27;;;;;;;10.32;1.90;;;9.60;99.90;;;;;;5091195;28;20036;-61
2024/01/05 01:45:56;;;;;;;6.25;1.85;;;9.60;99.90;;;;;;5092936;28;20029;-62
2024/01/05 01:48:23;;;;;;;7.90;1.95;;;9.60;99.90;;;;;;5092895;28;20469;-62
2024/01/05 01:50:50;;;;;;;7.95;1.90;;;9.60;99.90;;;;;;5092724;28;20076;-62
2024/01/05 01:53:18;;;;;;;8.82;2.03;;;9.60;99.90;;;;;;5092825;28;20028;-61
2024/01/05 01:55:46;;;;;;;9.85;2.17;;;9.60;99.90;;;;;;5092757;28;20129;-62
2024/01/05 01:58:15;;;;;;;5.60;2.25;;;9.60;99.90;;;;;;5092745;28;20021;-63
2024/01/05 02:00:41;;;;;;;9.38;2.10;;;9.60;99.90;;;;;;5092563;28;20021;-63
2024/01/05 02:03:07;;;;;;;7.63;2.00;;;9.60;99.90;;;;;;5092397;28;20092;-62
2024/01/05 02:05:33;;;;;;;7.38;2.00;;;9.60;99.90;;;;;;5092547;28;20483;-61
2024/01/05 02:07:59;;;;;;;7.97;2.10;;;9.60;99.90;;;;;;5092584;28;20046;-61
2024/01/05 02:10:25;;;;;;;10.85;2.40;;;9.60;99.90;;;;;;5092519;28;20043;-61
2024/01/05 02:12:50;;;;;;;7.97;1.60;;;9.60;99.90;;;;;;5092615;28;20031;-61
2024/01/05 02:15:17;;;;;;;6.72;2.20;;;9.60;99.90;;;;;;5092463;28;20375;-61
2024/01/05 02:17:43;;;;;;;4.00;1.42;;;9.60;99.90;;;;;;5092417;28;20080;-62
2024/01/05 02:20:08;;;;;;;8.10;2.40;;;9.50;99.90;;;;;;5092378;28;20596;-62
2024/01/05 02:22:37;;;;;;;6.80;1.70;;;9.50;99.90;;;;;;5092422;28;20035;-62
2024/01/05 02:25:04;;;;;;;12.40;2.03;;;9.50;99.90;;;;;;5092408;28;20035;-62
2024/01/05 02:27:30;;;;;;;5.07;1.50;;;9.50;99.90;;;;;;5092353;28;20021;-62
2024/01/05 02:29:55;;;;;;;7.57;1.45;;;9.60;99.90;;;;;;5092278;28;20088;-61
2024/01/05 02:32:21;;;;;;;5.75;1.83;;;9.60;99.90;;;;;;5092095;28;20036;-63
2024/01/05 02:34:47;;;;;;;6.35;1.17;;;9.60;99.90;;;;;;5092284;28;20029;-62
2024/01/05 02:37:12;;;;;;;6.20;1.48;;;9.60;99.90;;;;;;5092084;28;20061;-62
2024/01/05 02:39:38;;;;;;;7.35;1.75;;;9.60;99.90;;;;;;5092391;28;20316;-62
2024/01/05 02:42:04;;;;;;;5.70;1.38;;;9.50;99.90;;;;;;5092152;28;20037;-63
2024/01/05 02:44:29;;;;;;;9.43;1.83;;;9.50;99.90;;;;;;5092188;28;20049;-64
2024/01/05 02:46:55;;;;;;;5.50;1.73;;;9.50;99.90;;;;;;5092140;28;20021;-61
2024/01/05 02:49:21;;;;;;;6.38;1.65;;;9.50;99.90;;;;;;5092292;28;20036;-61
2024/01/05 02:51:47;;;;;;;4.53;1.65;;;9.50;99.90;;;;;;5092161;28;20033;-63
2024/01/05 02:54:13;;;;;;;5.95;1.73;;;9.40;99.90;;;;;;5092262;28;20025;-62
2024/01/05 02:56:39;;;;;;;9.10;1.88;;;9.40;99.90;;;;;;5095862;28;20031;-62
2024/01/05 02:59:05;;;;;;;6.28;1.90;;;9.40;99.90;;;;;;5096058;28;20024;-61
2024/01/05 03:01:30;;;;;;;8.35;1.80;;;9.40;99.90;;;;;;5095882;28;20367;-61
2024/01/05 03:04:01;;;;;;;4.50;1.52;;;9.40;99.90;;;;;;5096055;28;20028;-62
2024/01/05 03:06:26;;;;;;;4.53;1.40;;;9.30;99.90;;;;;;5095790;28;20028;-62
2024/01/05 03:08:52;;;;;;;4.10;1.35;;;9.30;99.90;;;;;;5096024;28;20059;-61
2024/01/05 03:11:18;;;;;;;10.82;1.88;;;9.30;99.90;;;;;;5095824;28;20048;-62
2024/01/05 03:13:43;;;;;;;6.18;1.70;;;9.20;99.90;;;;;;5095912;28;20025;-61
2024/01/05 03:16:09;;;;;;;9.18;2.10;;;9.20;99.90;;;;;;5095817;28;20279;-62
2024/01/05 03:18:35;;;;;;;3.95;1.65;;;9.30;99.90;;;;;;5095779;28;20017;-61
2024/01/05 03:21:00;;;;;;;6.72;1.65;;;9.20;99.90;;;;;;5095628;28;20494;-61
2024/01/05 03:23:26;;;;;;;5.28;1.90;;;9.30;99.90;;;;;;5095678;28;20033;-62
2024/01/05 03:25:52;;;;;;;5.65;1.40;;;9.20;99.90;;;;;;5094542;28;20039;-61
2024/01/05 03:28:18;;;;;;;6.28;2.10;;;9.20;99.90;;;;;;5095502;28;20036;-62
2024/01/05 03:30:43;;;;;;;4.82;2.17;;;9.20;99.90;;;;;;5094521;28;20040;-62
2024/01/05 03:33:09;;;;;;;9.95;1.75;;;9.20;99.90;;;;;;5095363;28;20024;-62
2024/01/05 03:35:38;;;;;;;7.45;2.03;;;9.20;99.90;;;;;;5095285;28;20020;-63
2024/01/05 03:38:04;;;;;;;6.88;1.98;;;9.20;99.90;;;;;;5095137;28;20037;-63
2024/01/05 03:40:30;;;;;;;6.43;1.55;;;9.20;99.90;;;;;;5095224;28;20046;-61
2024/01/05 03:42:56;;;;;;;6.35;1.98;;;9.20;99.90;;;;;;5095174;28;20041;-62
2024/01/05 03:45:21;;;;;;;6.40;2.15;;;9.20;99.90;;;;;;5095220;28;20450;-61
2024/01/05 03:47:47;;;;;;;6.22;1.90;;;9.20;99.90;;;;;;5095173;28;20029;-62
2024/01/05 03:50:13;;;;;;;8.25;2.13;;;9.20;99.90;;;;;;5095104;28;20052;-62
2024/01/05 03:52:38;;;;;;;3.90;1.38;;;9.20;99.90;;;;;;5094987;28;20028;-60
2024/01/05 03:55:04;;;;;;;4.05;2.10;;;9.20;99.90;;;;;;5095070;28;20107;-62
2024/01/05 03:57:30;;;;;;;3.55;1.67;;;9.20;99.90;;;;;;5094895;28;20016;-61
2024/01/05 03:59:56;;;;;;;5.40;1.83;;;9.20;99.90;;;;;;5094927;28;20032;-62
2024/01/05 04:02:21;;;;;;;7.15;1.60;;;9.20;99.90;;;;;;5094618;28;20097;-63
2024/01/05 04:04:47;;;;;;;5.85;2.38;;;9.20;99.90;;;;;;5094871;28;20055;-61
2024/01/05 04:07:13;;;;;;;6.05;1.67;;;9.20;99.90;;;;;;5094016;28;20059;-61
2024/01/05 04:09:38;;;;;;;8.20;2.38;;;9.20;99.90;;;;;;5094699;28;20108;-62
2024/01/05 04:12:04;;;;;;;8.93;1.70;;;9.20;99.90;;;;;;5094415;28;20483;-63
2024/01/05 04:14:30;;;;;;;6.45;1.70;;;9.20;99.90;;;;;;5094670;28;20025;-61
2024/01/05 04:16:55;;;;;;;4.70;1.85;;;9.20;99.90;;;;;;5094606;28;20025;-63
2024/01/05 04:19:21;;;;;;;9.38;1.92;;;9.10;99.90;;;;;;5094630;28;20025;-60
2024/01/05 04:21:47;;;;;;;3.80;1.42;;;9.20;99.90;;;;;;5094504;28;20031;-61
2024/01/05 04:24:13;;;;;;;3.78;1.45;;;9.10;99.90;;;;;;5094654;28;20025;-63
2024/01/05 04:26:38;;;;;;;7.65;1.70;;;9.20;99.90;;;;;;5094376;28;20028;-63
2024/01/05 04:29:04;;;;;;;9.35;1.58;;;9.10;99.90;;;;;;5094506;28;20031;-63
2024/01/05 04:31:30;;;;;;;5.65;1.80;;;9.10;99.90;;;;;;5094071;28;20075;-63
2024/01/05 04:33:55;;;;;;;5.32;1.52;;;9.10;99.90;;;;;;5094370;28;20044;-62
2024/01/05 04:36:21;;;;;;;11.80;1.73;;;9.10;99.90;;;;;;5094177;28;20040;-62
2024/01/05 04:38:47;;;;;;;7.28;2.08;;;9.10;99.90;;;;;;5094249;28;20033;-63
2024/01/05 04:41:15;;;;;;;7.22;1.80;;;9.00;99.90;;;;;;5094042;28;20033;-62
2024/01/05 04:43:41;;;;;;;4.15;1.48;;;9.10;99.90;;;;;;5094189;28;20042;-62
2024/01/05 04:46:08;;;;;;;3.50;1.08;;;9.10;99.90;;;;;;5094100;28;20060;-62
2024/01/05 04:48:33;;;;;;;3.00;1.63;;;9.10;99.90;;;;;;5094099;28;20036;-63
2024/01/05 04:51:00;;;;;;;6.22;1.35;;;9.00;99.90;;;;;;5094074;28;20044;-62
2024/01/05 04:53:25;;;;;;;3.22;1.17;;;9.00;99.90;;;;;;5093962;28;20021;-63
2024/01/05 04:55:51;;;;;;;5.80;1.60;;;9.00;99.90;;;;;;5093741;28;20088;-61
2024/01/05 04:58:17;;;;;;;3.15;1.00;;;9.10;99.90;;;;;;5093883;28;20043;-61
2024/01/05 05:00:43;;;;;;;4.05;1.83;;;9.00;99.90;;;;;;5093865;28;20094;-61
2024/01/05 05:03:09;;;;;;;3.17;1.35;;;9.10;99.90;;;;;;5093628;28;20028;-62
2024/01/05 05:05:36;;;;;;;8.18;1.48;;;9.00;99.90;;;;;;5093674;28;20095;-63
2024/01/05 05:08:01;;;;;;;4.90;1.25;;;9.00;99.90;;;;;;5093739;28;20101;-62
2024/01/05 05:10:27;;;;;;;3.75;1.08;;;9.10;99.90;;;;;;5093565;28;20029;-62
2024/01/05 05:12:53;;;;;;;3.20;1.05;;;9.00;99.90;;;;;;5093740;28;20031;-63
2024/01/05 05:15:18;;;;;;;4.38;0.95;;;9.00;99.90;;;;;;5093587;28;20032;-61
2024/01/05 05:17:44;;;;;;;5.40;1.58;;;9.00;99.90;;;;;;5093245;28;20041;-62
2024/01/05 05:20:10;;;;;;;3.67;0.88;;;9.00;99.90;;;;;;5092585;28;20028;-62
2024/01/05 05:22:36;;;;;;;4.32;1.15;;;9.00;99.90;;;;;;5093364;28;20056;-63
2024/01/05 05:25:02;;;;;;;5.13;1.10;;;9.10;99.90;;;;;;5093277;28;20029;-62
2024/01/05 05:27:28;;;;;;;5.25;1.10;;;9.00;99.90;;;;;;5093308;28;20024;-62
2024/01/05 05:29:53;;;;;;;5.70;2.35;;;9.00;99.90;;;;;;5093248;28;20166;-62
2024/01/05 05:32:19;;;;;;;4.88;1.33;;;9.10;99.90;;;;;;5092864;28;20024;-63
2024/01/05 05:34:44;;;;;;;6.72;1.30;;;9.10;99.90;;;;;;5093245;28;20029;-63
2024/01/05 05:37:10;;;;;;;4.50;1.58;;;9.10;99.90;;;;;;5092934;28;20040;-62
2024/01/05 05:39:36;;;;;;;5.90;1.13;;;9.20;99.90;;;;;;5092933;28;20103;-61
2024/01/05 05:42:02;;;;;;;7.57;1.35;;;9.20;99.90;;;;;;5093002;28;20035;-61
2024/01/05 05:44:28;;;;;;;4.30;1.25;;;9.20;99.90;;;;;;5092985;28;20048;-64
2024/01/05 05:46:54;;;;;;;6.68;1.20;;;9.20;99.90;;;;;;5092789;28;20031;-62
2024/01/05 05:49:21;;;;;;;5.25;1.48;;;9.20;99.90;;;;;;5092895;28;20020;-62
2024/01/05 05:51:47;;;;;;;4.93;1.13;;;9.20;99.90;;;;;;5092763;28;20088;-63
2024/01/05 05:54:13;;;;;;;4.75;1.10;;;9.30;99.90;;;;;;5092763;28;20549;-61
2024/01/05 05:56:39;;;;;;;5.05;1.20;;;9.30;99.90;;;;;;5092780;28;20067;-63
2024/01/05 05:59:05;;;;;;;3.80;1.23;;;9.30;99.90;;;;;;5092763;28;20119;-62
2024/01/05 06:01:31;;;;;;;3.35;1.30;;;9.30;99.90;;;;;;5092495;28;20487;-61
2024/01/05 06:03:57;;;;;;;6.63;1.50;;;9.30;99.90;;;;;;5092620;28;20063;-61
2024/01/05 06:06:23;;;;;;;4.80;1.27;;;9.40;99.90;;;;;;5092690;28;20402;-62
2024/01/05 06:08:51;;;;;;;6.00;1.77;;;9.40;99.90;;;;;;5092484;28;20028;-62
2024/01/05 06:11:17;;;;;;;2.70;1.38;;;9.40;99.90;;;;;;5092527;28;20051;-61
2024/01/05 06:13:44;;;;;;;6.63;1.00;;;9.40;99.90;;;;;;5092609;28;20020;-62
2024/01/05 06:16:09;;;;;;;5.40;1.25;;;9.40;99.90;;;;;;5092410;28;20074;-61
2024/01/05 06:18:35;;;;;;;3.95;1.25;;;9.40;99.90;;;;;;5092423;28;20025;-62
2024/01/05 06:21:01;;;;;;;5.88;1.20;;;9.40;99.90;;;;;;5092382;28;20036;-61
2024/01/05 06:23:26;;;;;;;5.43;1.02;;;9.40;99.90;;;;;;5092411;28;20028;-62
2024/01/05 06:25:52;;;;;;;3.72;0.80;;;9.40;99.90;;;;;;5092402;28;20028;-61
2024/01/05 06:28:17;;;;;;;2.67;1.25;;;9.40;99.90;;;;;;5092499;28;20418;-63
2024/01/05 06:30:43;;;;;;;3.92;1.38;;;9.40;99.90;;;;;;5091923;28;20044;-61
2024/01/05 06:33:09;;;;;;;7.13;1.50;;;9.50;99.90;;;;;;5092101;28;20403;-63
2024/01/05 06:35:35;;;;;;;2.28;0.93;;;9.50;99.90;;;;;;5092212;28;20013;-64
2024/01/05 06:38:00;;;;;;;5.90;1.42;;;9.40;99.90;;;;;;5092028;28;20075;-63
2024/01/05 06:40:26;;;;;;;6.50;1.27;;;9.40;99.90;;;;;;5092279;28;20021;-62
2024/01/05 06:42:52;;;;;;;4.47;0.80;;;9.40;99.90;;;;;;5092177;28;20471;-63
2024/01/05 06:45:18;;;;;;;3.63;1.13;;;9.50;99.90;;;;;;5092163;28;20036;-63
2024/01/05 06:47:43;;;;;;;4.15;1.10;;;9.50;99.90;;;;;;5092144;28;20060;-61
2024/01/05 06:50:09;;;;;;;5.70;0.85;;;9.50;99.90;;;;;;5092164;28;20029;-62
2024/01/05 06:52:35;;;;;;;7.78;1.10;;;9.50;99.90;;;;;;5091923;28;20036;-61
2024/01/05 06:55:00;;;;;;;4.00;1.13;;;9.50;99.90;;;;;;5092119;28;20041;-62
2024/01/05 06:57:29;;;;;;;3.25;0.85;;;9.50;99.90;;;;;;5091003;28;20420;-64
2024/01/05 06:59:54;;;;;;;2.85;0.88;;;9.50;99.90;;;;;;5092203;28;20025;-62
2024/01/05 07:02:20;;;;;;;5.13;1.15;;;9.50;99.90;;;;;;5091921;28;20055;-61
2024/01/05 07:04:46;;;;;;;3.13;1.13;;;9.50;99.90;;;;;;5085188;28;20034;-63
2024/01/05 07:07:11;;;;;;;1.52;0.45;;;9.50;99.90;;;;;;5071756;28;20395;-64
2024/01/05 07:09:37;;;;;;;1.73;0.43;;;9.50;99.90;;;;;;5070598;28;20077;-63
2024/01/05 07:12:03;;;;;;;0.60;0.20;;;9.50;99.90;;;;;;5071563;28;20036;-63
2024/01/05 07:14:29;;;;;;;2.28;0.40;;;9.50;99.90;;;;;;5071037;28;20062;-63
2024/01/05 07:16:58;;;;;;;0.75;0.30;;;9.50;99.90;;;;;;5070541;28;20032;-62
2024/01/05 07:19:24;;;;;;;0.80;0.60;;;9.50;99.90;;;;;;5071752;28;20025;-63
2024/01/05 07:21:50;;;;;;;1.75;0.20;;;9.50;99.90;;;;;;5071553;28;20051;-63
2024/01/05 07:24:17;;;;;;;0.60;0.25;;;9.50;99.90;;;;;;5071739;28;20056;-61
2024/01/05 07:26:43;;;;;;;3.13;0.45;;;9.50;99.90;;;;;;5071724;28;20021;-63
2024/01/05 07:29:09;;;;;;;0.13;0.10;;;9.50;99.90;;;;;;5071701;28;20029;-62
2024/01/05 07:31:34;;;;;;;0.40;0.20;;;9.50;99.90;;;;;;5071356;28;20088;-62
2024/01/05 07:34:00;;;;;;;1.60;0.25;;;9.50;99.90;;;;;;5071480;28;20084;-61
2024/01/05 07:36:26;;;;;;;1.35;0.20;;;9.40;99.90;;;;;;5071366;28;20462;-64
2024/01/05 07:38:52;;;;;;;0.95;0.30;;;9.40;99.90;;;;;;5071672;28;20033;-63
2024/01/05 07:41:18;;;;;;;1.27;0.20;;;9.40;99.90;;;;;;5071532;28;20040;-63
2024/01/05 07:43:44;;;;;;;0.95;0.10;;;9.40;99.90;;;;;;5074960;28;20044;-63
2024/01/05 07:46:10;;;;;;;0.50;0.30;;;9.40;99.90;;;;;;5075245;28;20071;-62
2024/01/05 07:48:41;;;;;;;1.08;0.70;;;9.30;99.90;;;;;;5075035;28;20013;-62
2024/01/05 07:51:08;;;;;;;2.13;0.25;;;9.30;99.90;;;;;;5075126;28;20080;-63
2024/01/05 07:53:33;;;;;;;0.63;0.20;;;9.20;99.90;;;;;;5075133;28;20022;-62
2024/01/05 07:56:00;;;;;;;0.10;0.10;;;9.20;99.90;;;;;;5074999;28;20021;-63
2024/01/05 07:58:26;;;;;;;0.08;0.08;;;9.20;99.90;;;;;;5075039;28;20025;-62
2024/01/05 08:00:51;;;;;;;0.80;0.20;;;9.20;99.90;;;;;;5073911;28;20510;-62
2024/01/05 08:03:17;;;;;;;1.17;0.13;;;9.10;99.90;;;;;;5074696;28;20112;-62
2024/01/05 08:05:43;;;;;;;0.80;0.20;;;9.10;99.90;;;;;;5074976;28;20021;-62
2024/01/05 08:08:08;;;;;;;0.70;0.20;;;9.10;99.90;;;;;;5074762;28;20035;-63
2024/01/05 08:10:35;;;;;;;1.50;0.20;;;9.10;99.90;;;;;;5073649;28;20064;-63
2024/01/05 08:13:01;;;;;;;0.20;0.20;;;9.00;99.90;;;;;;5073613;28;20059;-63
2024/01/05 08:15:27;;;;;;;3.70;0.40;;;9.00;99.90;;;;;;5074666;28;20021;-61
2024/01/05 08:17:54;;;;;;;0.68;0.30;;;9.00;99.90;;;;;;5074483;28;20037;-61
2024/01/05 08:20:19;;;;;;;0.47;0.20;;;9.00;99.90;;;;;;5074492;28;20021;-62
2024/01/05 08:22:45;;;;;;;0.43;0.10;;;9.00;99.90;;;;;;5074433;28;20044;-62
2024/01/05 08:25:13;;;;;;;0.50;0.22;;;8.90;99.90;;;;;;5074565;28;20048;-63
2024/01/05 08:27:39;;;;;;;0.43;0.20;;;8.90;99.90;;;;;;5074443;28;20021;-63
2024/01/05 08:30:07;;;;;;;0.82;0.20;;;8.80;99.90;;;;;;5074311;28;20052;-63
2024/01/05 08:32:33;;;;;;;0.55;0.20;;;8.80;99.90;;;;;;5073808;28;20033;-63
2024/01/05 08:34:59;;;;;;;0.38;0.20;;;8.80;99.90;;;;;;5074213;28;20036;-62
2024/01/05 08:37:25;;;;;;;0.63;0.10;;;8.80;99.90;;;;;;5073967;28;20148;-63
2024/01/05 08:39:51;;;;;;;0.45;0.17;;;8.70;99.90;;;;;;5074127;28;20017;-64
2024/01/05 08:42:16;;;;;;;2.25;0.50;;;8.70;99.90;;;;;;5074140;28;20040;-62
2024/01/05 08:44:42;;;;;;;0.60;0.32;;;8.70;99.90;;;;;;5074077;28;20025;-62
2024/01/05 08:47:08;;;;;;;0.90;0.40;;;8.60;99.90;;;;;;5073960;28;20032;-63
2024/01/05 08:49:34;;;;;;;0.15;0.10;;;8.60;99.90;;;;;;5073977;28;20025;-63
2024/01/05 08:51:59;;;;;;;1.13;0.22;;;8.60;99.90;;;;;;5073864;28;20108;-63
2024/01/05 08:54:25;;;;;;;1.38;0.20;;;8.60;99.90;;;;;;5073775;28;20024;-63
2024/01/05 08:56:50;;;;;;;0.45;0.32;;;8.60;99.90;;;;;;5073922;28;20574;-62
2024/01/05 08:59:16;;;;;;;0.32;0.20;;;8.60;99.90;;;;;;5073826;28;20029;-62
2024/01/05 09:01:42;;;;;;;0.88;0.22;;;8.60;99.90;;;;;;5073583;28;20032;-63
2024/01/05 09:04:10;;;;;;;1.67;0.22;;;8.60;99.90;;;;;;5073716;28;20049;-63
2024/01/05 09:06:37;;;;;;;0.10;0.10;;;8.50;99.90;;;;;;5073582;28;20070;-64
2024/01/05 09:09:03;;;;;;;0.75;0.25;;;8.50;99.90;;;;;;5073743;28;20025;-65
2024/01/05 09:11:29;;;;;;;0.25;0.20;;;8.50;99.90;;;;;;5072568;28;20035;-63
2024/01/05 09:13:55;;;;;;;0.20;0.20;;;8.50;99.90;;;;;;5073513;28;20056;-63
2024/01/05 09:16:20;;;;;;;0.20;0.20;;;8.40;99.90;;;;;;5073386;28;20025;-63
2024/01/05 09:18:46;;;;;;;1.38;0.28;;;8.40;99.90;;;;;;5073413;28;20051;-63
2024/01/05 09:21:13;;;;;;;1.05;0.30;;;8.30;99.90;;;;;;5073230;28;20037;-63
2024/01/05 09:23:41;;;;;;;1.73;0.28;;;8.30;99.90;;;;;;5072290;28;20041;-63
2024/01/05 09:26:13;;;;;;;1.10;0.60;;;8.30;99.90;;;;;;5073204;28;20032;-61
2024/01/05 09:28:39;;;;;;;0.70;0.17;;;8.20;99.90;;;;;;5073054;28;20032;-62
2024/01/05 09:31:04;;;;;;;0.68;0.28;;;8.20;99.90;;;;;;5072799;28;20029;-65
2024/01/05 09:33:30;;;;;;;1.40;0.30;;;8.10;99.90;;;;;;5073089;28;20040;-63
2024/01/05 09:35:56;;;;;;;0.30;0.17;;;8.10;99.90;;;;;;5071914;28;20084;-63
2024/01/05 09:38:21;;;;;;;0.60;0.50;;;8.00;99.90;;;;;;5072958;28;20021;-63
2024/01/05 09:40:47;;;;;;;0.40;0.28;;;7.90;99.90;;;;;;5072919;28;20057;-61
2024/01/05 09:43:14;;;;;;;0.25;0.22;;;7.80;99.90;;;;;;5072939;28;20027;-64
2024/01/05 09:45:41;;;;;;;0.50;0.40;;;7.80;99.90;;;;;;5072792;28;20029;-62
2024/01/05 09:48:09;;;;;;;0.32;0.30;;;7.70;99.90;;;;;;5072829;28;20056;-63
2024/01/05 09:50:36;;;;;;;2.38;0.40;;;7.70;99.90;;;;;;5072653;28;20029;-62
2024/01/05 09:53:04;;;;;;;0.68;0.40;;;7.60;99.90;;;;;;5071863;28;20045;-62
2024/01/05 09:55:30;;;;;;;0.57;0.30;;;7.60;99.90;;;;;;5072746;28;20028;-63
2024/01/05 09:57:56;;;;;;;0.38;0.20;;;7.60;99.90;;;;;;5072680;28;20025;-61
2024/01/05 10:00:23;;;;;;;0.65;0.30;;;7.60;99.90;;;;;;5072750;28;20028;-62
2024/01/05 10:02:58;;;;;;;0.70;0.25;;;7.50;99.90;;;;;;5072373;28;20117;-63
2024/01/05 10:05:25;;;;;;;1.40;0.52;;;7.50;99.90;;;;;;5072037;28;20128;-62
2024/01/05 10:07:51;;;;;;;0.60;0.32;;;7.50;99.90;;;;;;5072548;28;20033;-63
2024/01/05 10:10:16;;;;;;;1.23;0.32;;;7.50;99.90;;;;;;5072549;28;20051;-63
2024/01/05 10:12:42;;;;;;;2.08;0.65;;;7.50;99.90;;;;;;5072416;28;20033;-63
2024/01/05 10:15:08;;;;;;;0.52;0.40;;;7.50;99.90;;;;;;5072527;28;20022;-63
2024/01/05 10:17:34;;;;;;;2.55;0.77;;;7.60;99.90;;;;;;5072498;28;20025;-62
2024/01/05 10:20:21;;;;;;;2.63;0.70;;;7.60;99.90;;;;;;5072370;28;20021;-62
2024/01/05 10:22:46;;;;;;;0.80;0.60;;;7.70;99.90;;;;;;5072282;28;20021;-63
2024/01/05 10:25:23;;;;;;;1.98;0.70;;;7.70;99.90;;;;;;5072309;28;20032;-62
2024/01/05 10:27:50;;;;;;;0.80;0.65;;;7.70;99.90;;;;;;5072206;28;20025;-63
2024/01/05 10:30:27;;;;;;;1.27;0.60;;;7.80;99.90;;;;;;5072306;28;20097;-63
2024/01/05 10:33:06;;;;;;;0.88;0.63;;;7.70;99.90;;;;;;5071952;28;20029;-64
2024/01/05 10:35:34;;;;;;;1.50;0.90;;;7.80;99.90;;;;;;5072121;28;20097;-64
2024/01/05 10:38:12;;;;;;;1.23;0.60;;;7.80;99.90;;;;;;5071994;28;20053;-63
2024/01/05 10:40:38;;;;;;;1.35;0.43;;;7.90;99.90;;;;;;5072079;28;20041;-63
2024/01/05 10:43:11;;;;;;;1.58;0.75;;;7.90;99.90;;;;;;5072223;28;20021;-63
2024/01/05 10:45:41;;;;;;;1.75;0.85;;;7.90;99.90;;;;;;5072121;28;20020;-63
2024/01/05 10:48:13;;;;;;;1.92;0.82;;;8.00;99.90;;;;;;5072127;28;20028;-62
2024/01/05 10:50:41;;;;;;;1.52;0.88;;;8.00;99.90;;;;;;5072022;28;20036;-62
2024/01/05 10:53:11;;;;;;;1.50;1.02;;;8.00;99.90;;;;;;5071983;28;20049;-63
2024/01/05 10:55:37;;;;;;;5.32;1.40;;;8.00;99.90;;;;;;5072046;28;20025;-63
2024/01/05 10:58:06;;;;;;;1.00;0.75;;;8.10;99.90;;;;;;5071985;28;20075;-62
2024/01/05 11:00:32;;;;;;;1.45;0.90;;;8.10;99.90;;;;;;5071909;28;20048;-63
2024/01/05 11:03:18;;;;;;;0.93;0.65;;;8.10;99.90;;;;;;5071811;28;20032;-62
2024/01/05 11:05:45;;;;;;;2.17;0.95;;;8.10;99.90;;;;;;5071814;28;20032;-64
2024/01/05 11:08:21;;;;;;;1.95;0.98;;;8.10;99.90;;;;;;5071808;28;20029;-61
2024/01/05 11:11:04;;;;;;;1.02;0.70;;;8.10;99.90;;;;;;5071671;28;20027;-63
2024/01/05 11:13:36;;;;;;;0.90;0.80;;;8.20;99.90;;;;;;5071725;28;20033;-63
2024/01/05 11:16:12;;;;;;;;;;;8.10;99.90;;;;;;5072306;28;20103;-63
2024/01/05 11:19:01;;;;;;;2.22;0.70;;;8.10;99.90;;;;;;5075508;28;19912;-63
2024/01/05 11:21:55;;;;;;;1.20;0.70;;;8.10;99.90;;;;;;5075624;28;20033;-62
2024/01/05 11:24:22;;;;;;;1.10;0.73;;;8.10;99.90;;;;;;5075284;28;20044;-63
2024/01/05 11:26:48;;;;;;;1.25;0.70;;;8.20;99.90;;;;;;5075537;28;20036;-62
2024/01/05 11:29:46;;;;;;;1.92;0.70;;;8.20;99.90;;;;;;5075635;28;20085;-63
2024/01/05 11:32:45;;;;;;;0.70;0.50;;;8.20;99.90;;;;;;5075214;28;20025;-63
2024/01/05 11:35:16;;;;;;;2.92;0.88;;;8.20;99.90;;;;;;5075568;28;20021;-62
2024/01/05 11:37:42;;;;;;;1.70;0.70;;;8.20;99.90;;;;;;5075184;28;20070;-64
2024/01/05 11:40:27;;;;;;;1.42;0.70;;;8.20;99.90;;;;;;5075394;28;20029;-62
2024/01/05 11:42:53;;;;;;;0.95;0.70;;;8.20;99.90;;;;;;5074309;28;20074;-62
2024/01/05 11:45:43;;;;;;;1.45;0.88;;;8.30;99.90;;;;;;5075322;28;20025;-62
2024/01/05 11:48:09;;;;;;;0.70;0.47;;;8.20;99.90;;;;;;5075289;28;20029;-63
2024/01/05 11:50:36;;;;;;;1.23;0.57;;;8.20;99.90;;;;;;5075113;28;20029;-62
2024/01/05 11:53:16;;;;;;;3.45;1.48;;;8.20;99.90;;;;;;5075075;28;20036;-61
2024/01/05 11:55:50;;;;;;;4.05;1.30;;;8.20;99.90;;;;;;5074074;28;20021;-63
2024/01/05 11:58:17;;;;;;;1.40;0.88;;;8.20;99.90;;;;;;5075073;28;20535;-63
2024/01/05 12:00:44;;;;;;;2.05;1.00;;;8.20;99.90;;;;;;5074856;28;20032;-64
2024/01/05 12:03:10;;;;;;;1.70;0.98;;;8.20;99.90;;;;;;5074687;28;20025;-63
2024/01/05 12:05:40;;;;;;;0.98;0.77;;;8.20;99.90;;;;;;5074765;28;20051;-62
2024/01/05 12:08:08;;;;;;;2.63;1.13;;;8.30;99.90;;;;;;5074619;28;20033;-63
2024/01/05 12:10:34;;;;;;;1.95;1.20;;;8.30;99.90;;;;;;5074565;28;20025;-64
2024/01/05 12:13:00;;;;;;;3.17;1.55;;;8.30;99.90;;;;;;5074643;28;20025;-62
2024/01/05 12:15:26;;;;;;;1.35;1.00;;;8.30;99.90;;;;;;5074507;28;20017;-63
2024/01/05 12:18:11;;;;;;;2.53;1.00;;;8.30;99.90;;;;;;5074512;28;20063;-61
2024/01/05 12:20:37;;;;;;;1.65;1.00;;;8.30;99.90;;;;;;5074526;28;20056;-62
2024/01/05 12:23:03;;;;;;;0.98;0.88;;;8.30;99.90;;;;;;5074583;28;20025;-63
2024/01/05 12:25:30;;;;;;;1.45;0.75;;;8.20;99.90;;;;;;5074372;28;20032;-63
2024/01/05 12:27:57;;;;;;;2.25;1.00;;;8.20;99.90;;;;;;5073778;28;20029;-61
2024/01/05 12:30:23;;;;;;;1.77;1.08;;;8.30;99.90;;;;;;5073316;28;20025;-62
2024/01/05 12:32:49;;;;;;;1.15;0.90;;;8.20;99.90;;;;;;5074059;28;20021;-63
2024/01/05 12:35:15;;;;;;;1.75;0.88;;;8.30;99.90;;;;;;5074382;28;20091;-62
2024/01/05 12:37:52;;;;;;;1.55;1.30;;;8.30;99.90;;;;;;5074120;28;20045;-61
2024/01/05 12:40:23;;;;;;;1.58;0.90;;;8.20;99.90;;;;;;5074280;28;20116;-62
2024/01/05 12:42:51;;;;;;;1.25;0.90;;;8.20;99.90;;;;;;5074162;28;20093;-61
2024/01/05 12:45:17;;;;;;;2.50;1.20;;;8.20;99.90;;;;;;5074224;28;20039;-63
2024/01/05 12:47:44;;;;;;;4.93;1.05;;;8.20;99.90;;;;;;5074126;28;20043;-62
2024/01/05 12:50:26;;;;;;;2.05;1.23;;;8.20;99.90;;;;;;5073994;28;20051;-65
2024/01/05 12:52:52;;;;;;;3.30;1.08;;;8.20;99.90;;;;;;5073829;28;20040;-63
2024/01/05 12:55:31;;;;;;;3.45;1.52;;;8.10;99.90;;;;;;5073884;28;20017;-63
2024/01/05 12:58:04;;;;;;;1.83;1.00;;;8.10;99.90;;;;;;5072731;28;20053;-62